KLNR/LNR METAR and TAF weather

Enter ICAO airport designator
Station Type Date Time Source
KLNR METAR 2022/06/30 12:56 UTC NOAA

KLNR 301256Z AUTO VRB05KT 10SM CLR 24/18 A2998 RMK AO2 SLP144 T02390178


Station Type Date Time Source
KLNR Decoded METAR 2022/06/30 12:56 UTC NOAA

LONE ROCK TRI-COUNTY REG, WI, United States (KLNR) 43-13N 090-11W 217M
Jun 30, 2022 - 08:56 AM EDT / 2022.06.30 1256 UTC
Wind: Variable at 6 MPH (5 KT):0
Visibility: 10 mile(s):0
Sky conditions: clear
Temperature: 75.0 F (23.9 C)
Dew Point: 64.0 F (17.8 C)
Relative Humidity: 68%
Pressure (altimeter): 29.98 in. Hg (1015 hPa)
ob: KLNR 301256Z AUTO VRB05KT 10SM CLR 24/18 A2998 RMK AO2 SLP144 T02390178
cycle: 13

Station Type Date Time Source
KLNR TAF UTC NOAA

Error!

Example: see airport list